Time;durP1;ratioP1;P1;durP2;ratioP2;P2;SDS_P1;SDS_P2;PMS_P1;PMS_P2;Temp;Humidity;BMP_temperature;BMP_pressure;BME280_temperature;BME280_humidity;BME280_pressure;Samples;Min_cycle;Max_cycle;Signal;HPM_P1;HPM_P2
2021/11/07 00:07:36;;;;;;;5.03;2.50;;;;;;;10.05;100.00;101696.06;4995153;28;20042;-45
2021/11/07 00:10:14;;;;;;;6.35;2.80;;;;;;;9.99;100.00;101700.59;4984542;28;20053;-49
2021/11/07 00:12:22;;;;;;;8.98;3.03;;;;;;;10.00;100.00;101688.63;4986710;28;20050;-46
2021/11/07 00:14:51;;;;;;;5.45;2.67;;;;;;;10.01;100.00;101693.84;4993810;28;20042;-52
2021/11/07 00:17:24;;;;;;;4.55;2.45;;;;;;;9.98;100.00;101699.78;4994796;28;20517;-49
2021/11/07 00:19:58;;;;;;;5.75;2.60;;;;;;;10.00;100.00;101694.91;4994319;28;20074;-46
2021/11/07 00:22:44;;;;;;;4.47;2.63;;;;;;;9.95;100.00;101694.81;4994574;28;20515;-50
2021/11/07 00:27:56;;;;;;;5.97;2.47;;;;;;;9.94;100.00;101697.78;5008025;28;20038;-51
2021/11/07 00:35:54;;;;;;;4.93;2.67;;;;;;;9.87;100.00;101691.66;4993862;28;20046;-52
2021/11/07 00:38:25;;;;;;;6.40;2.88;;;;;;;9.90;100.00;101685.72;4994151;28;20046;-51
2021/11/07 00:43:41;;;;;;;;;;;;;;;9.97;100.00;101673.63;4994394;28;20428;-52
2021/11/07 00:46:17;;;;;;;5.78;2.65;;;;;;;9.92;100.00;101686.31;4993804;28;19929;-53
2021/11/07 00:48:53;;;;;;;4.40;2.35;;;;;;;9.89;100.00;101676.75;4994371;28;20045;-51
2021/11/07 00:51:27;;;;;;;5.05;2.95;;;;;;;9.90;100.00;101680.28;4993805;28;20061;-50
2021/11/07 00:59:29;;;;;;;5.07;3.00;;;;;;;9.89;100.00;101678.63;4993806;28;20125;-51
2021/11/07 01:02:17;;;;;;;6.20;2.35;;;;;;;9.85;100.00;101675.56;4993453;28;20490;-52
2021/11/07 01:04:47;;;;;;;3.38;2.35;;;;;;;9.84;100.00;101682.09;4994007;28;20042;-50
2021/11/07 01:07:16;;;;;;;5.18;2.72;;;;;;;9.85;100.00;101678.28;4993499;28;20167;-50
2021/11/07 01:09:45;;;;;;;8.65;2.78;;;;;;;9.87;100.00;101669.88;4993437;28;20046;-51
2021/11/07 01:12:13;;;;;;;3.10;2.30;;;;;;;9.86;100.00;101671.78;4992606;28;20129;-51
2021/11/07 01:14:41;;;;;;;4.50;2.50;;;;;;;9.89;100.00;101662.31;4993492;28;20049;-52
2021/11/07 01:17:08;;;;;;;5.15;2.75;;;;;;;9.93;100.00;101668.91;4993509;28;20050;-51
2021/11/07 01:19:37;;;;;;;5.03;2.80;;;;;;;9.91;100.00;101669.16;4993749;28;20042;-51
2021/11/07 01:22:08;;;;;;;4.57;2.50;;;;;;;9.91;100.00;101652.81;4993071;28;20043;-51
2021/11/07 01:24:39;;;;;;;4.10;2.60;;;;;;;9.91;100.00;101654.69;4988861;28;20042;-52
2021/11/07 01:27:20;;;;;;;6.88;2.88;;;;;;;9.89;100.00;101646.78;4992692;28;20057;-52
2021/11/07 01:29:52;;;;;;;5.45;2.70;;;;;;;9.90;100.00;101634.00;4993538;28;20382;-52
2021/11/07 01:32:21;;;;;;;3.35;2.50;;;;;;;9.90;100.00;101631.28;4991374;28;20054;-51
2021/11/07 01:37:23;;;;;;;5.03;2.50;;;;;;;9.88;100.00;101634.22;4992915;28;20065;-51
2021/11/07 01:40:15;;;;;;;5.78;2.78;;;;;;;9.93;100.00;101617.19;4992949;28;20057;-52
2021/11/07 01:42:42;;;;;;;4.40;3.00;;;;;;;9.91;100.00;101611.16;4980292;28;20047;-49
2021/11/07 01:45:28;;;;;;;4.22;2.70;;;;;;;9.91;100.00;101608.41;4993388;28;20070;-52
2021/11/07 01:48:41;;;;;;;4.82;2.80;;;;;;;9.95;100.00;101601.44;4993471;28;20077;-51
2021/11/07 01:50:58;;;;;;;6.43;3.22;;;;;;;9.96;100.00;101597.66;4991262;28;20042;-51
2021/11/07 01:53:36;;;;;;;6.32;2.63;;;;;;;9.95;100.00;101601.44;4992183;28;20545;-50
2021/11/07 01:56:07;;;;;;;5.25;3.22;;;;;;;9.94;100.00;101594.34;4993342;28;20038;-52
2021/11/07 01:58:35;;;;;;;5.25;2.90;;;;;;;10.01;100.00;101584.94;4993434;28;20117;-52
2021/11/07 02:01:03;;;;;;;6.57;3.42;;;;;;;10.00;100.00;101596.06;4993054;28;20053;-52
2021/11/07 02:03:32;;;;;;;9.45;3.95;;;;;;;10.00;100.00;101587.91;4992050;28;20449;-54
2021/11/07 02:06:00;;;;;;;6.65;4.05;;;;;;;10.06;100.00;101586.13;5007818;28;20034;-53
2021/11/07 02:08:28;;;;;;;8.32;3.67;;;;;;;10.02;100.00;101580.31;4992672;28;20042;-51
2021/11/07 02:10:57;;;;;;;6.75;3.65;;;;;;;10.01;100.00;101563.16;4992772;28;20052;-51
2021/11/07 02:13:26;;;;;;;7.10;4.20;;;;;;;10.04;100.00;101570.00;4992578;28;20070;-51
2021/11/07 02:15:55;;;;;;;7.88;3.80;;;;;;;10.00;100.00;101556.06;4992565;28;20045;-52
2021/11/07 02:18:24;;;;;;;7.10;3.55;;;;;;;9.97;100.00;101561.19;4980070;28;20042;-52
2021/11/07 02:20:52;;;;;;;6.45;3.83;;;;;;;9.98;100.00;101546.47;4985501;28;20054;-49
2021/11/07 02:23:22;;;;;;;8.68;4.07;;;;;;;9.98;100.00;101547.34;4991879;28;20520;-54
2021/11/07 02:25:52;;;;;;;8.88;4.60;;;;;;;9.98;100.00;101550.06;4991626;28;20049;-47
2021/11/07 02:28:43;;;;;;;7.15;3.75;;;;;;;10.00;100.00;101528.81;4992696;28;20038;-51
2021/11/07 02:31:13;;;;;;;6.22;3.80;;;;;;;10.08;100.00;101541.22;4992988;28;20043;-52
2021/11/07 02:33:41;;;;;;;9.93;4.40;;;;;;;10.05;100.00;101540.88;4992596;28;20038;-50
2021/11/07 02:36:12;;;;;;;8.35;4.15;;;;;;;10.05;100.00;101528.09;4992204;28;20050;-54
2021/11/07 02:38:41;;;;;;;10.55;5.18;;;;;;;10.04;100.00;101534.63;4994687;28;20093;-51
2021/11/07 02:41:09;;;;;;;7.50;4.60;;;;;;;10.04;100.00;101526.44;4996538;28;20054;-51
2021/11/07 02:43:52;;;;;;;10.93;4.80;;;;;;;10.05;100.00;101530.00;4996136;28;20045;-53
2021/11/07 02:46:21;;;;;;;8.05;4.95;;;;;;;10.02;100.00;101542.19;4996049;28;20045;-51
2021/11/07 02:48:57;;;;;;;11.25;4.97;;;;;;;10.00;100.00;101538.91;4995893;28;20057;-50
2021/11/07 02:51:31;;;;;;;9.80;4.65;;;;;;;9.99;100.00;101521.75;4995936;28;20051;-51
2021/11/07 02:54:04;;;;;;;8.23;4.82;;;;;;;9.99;100.00;101516.31;4995487;28;20053;-51
2021/11/07 02:56:32;;;;;;;8.98;5.13;;;;;;;9.99;100.00;101515.47;4996227;28;20038;-52
2021/11/07 02:59:00;;;;;;;9.15;4.60;;;;;;;10.01;100.00;101526.97;4991604;28;20067;-50
2021/11/07 03:01:29;;;;;;;10.02;4.85;;;;;;;10.02;100.00;101514.97;4986610;28;20054;-51
2021/11/07 03:04:04;;;;;;;10.35;5.22;;;;;;;10.04;100.00;101521.00;4995416;28;20038;-50
2021/11/07 03:06:33;;;;;;;11.85;5.53;;;;;;;10.02;100.00;101510.34;4995649;28;20046;-53
2021/11/07 03:09:05;;;;;;;11.40;4.70;;;;;;;10.05;100.00;101509.03;4995861;28;20050;-51
2021/11/07 03:11:40;;;;;;;10.48;5.35;;;;;;;10.05;100.00;101509.03;4996142;28;20402;-50
2021/11/07 03:14:11;;;;;;;9.48;5.55;;;;;;;10.03;100.00;101503.84;4992152;28;20054;-50
2021/11/07 03:16:39;;;;;;;9.48;5.32;;;;;;;10.09;100.00;101493.84;4995888;28;20043;-51
2021/11/07 03:19:07;;;;;;;9.00;4.47;;;;;;;10.10;100.00;101500.13;4995631;28;20054;-50
2021/11/07 03:21:34;;;;;;;9.65;5.13;;;;;;;10.12;100.00;101490.63;4995492;28;20057;-52
2021/11/07 03:24:02;;;;;;;10.82;6.25;;;;;;;10.10;100.00;101498.25;4995720;28;20054;-51
2021/11/07 03:26:32;;;;;;;13.95;6.47;;;;;;;10.07;100.00;101501.44;4995437;28;20042;-51
2021/11/07 03:29:02;;;;;;;8.85;5.28;;;;;;;10.05;100.00;101498.13;4996448;28;20065;-52
2021/11/07 03:31:41;;;;;;;10.77;5.07;;;;;;;10.09;100.00;101502.03;4995479;28;20093;-50
2021/11/07 03:34:18;;;;;;;9.80;5.95;;;;;;;10.07;100.00;101500.63;4995015;28;20042;-52
2021/11/07 03:36:48;;;;;;;14.02;6.10;;;;;;;10.07;100.00;101501.44;4995286;28;20397;-50
2021/11/07 03:39:18;;;;;;;11.55;6.07;;;;;;;10.08;100.00;101494.09;4995583;28;20136;-52
2021/11/07 03:41:46;;;;;;;9.75;5.90;;;;;;;10.07;100.00;101492.47;4994977;28;20045;-48
2021/11/07 03:44:15;;;;;;;10.07;5.47;;;;;;;10.09;100.00;101488.41;4995741;28;20066;-52
2021/11/07 03:46:44;;;;;;;9.75;5.47;;;;;;;10.09;100.00;101487.59;4994991;28;20035;-51
2021/11/07 03:49:12;;;;;;;10.05;6.18;;;;;;;10.07;100.00;101485.09;4993845;28;20042;-52
2021/11/07 03:51:40;;;;;;;11.63;5.70;;;;;;;10.05;100.00;101489.97;4995411;28;20046;-51
2021/11/07 03:54:09;;;;;;;10.95;5.97;;;;;;;10.05;100.00;101478.25;4994589;28;20038;-48
2021/11/07 03:56:37;;;;;;;7.82;4.90;;;;;;;10.07;100.00;101474.22;4994645;28;20053;-50
2021/11/07 03:59:05;;;;;;;9.80;5.82;;;;;;;10.06;100.00;101477.22;4995262;28;20049;-51
2021/11/07 04:01:33;;;;;;;7.75;5.15;;;;;;;10.07;100.00;101470.69;4994540;28;20042;-52
2021/11/07 04:04:01;;;;;;;10.23;5.90;;;;;;;10.08;100.00;101466.88;4994617;28;20493;-51
2021/11/07 04:06:29;;;;;;;10.45;5.05;;;;;;;10.09;100.00;101458.47;4994798;28;20030;-52
2021/11/07 04:08:57;;;;;;;11.68;6.40;;;;;;;10.09;100.00;101461.19;4994918;28;20089;-51
2021/11/07 04:11:25;;;;;;;9.10;5.47;;;;;;;10.11;100.00;101460.94;4994704;28;20053;-52
2021/11/07 04:13:52;;;;;;;11.80;6.15;;;;;;;10.10;100.00;101457.41;4994819;28;20051;-51
2021/11/07 04:16:20;;;;;;;8.85;5.53;;;;;;;10.11;100.00;101459.03;4994222;28;20414;-48
2021/11/07 04:18:48;;;;;;;11.20;5.68;;;;;;;10.11;100.00;101448.16;4994469;28;20050;-51
2021/11/07 04:21:15;;;;;;;11.05;6.43;;;;;;;10.12;100.00;101441.63;4994053;28;20513;-51
2021/11/07 04:23:43;;;;;;;10.40;5.45;;;;;;;10.15;100.00;101443.88;4994512;28;20515;-52
2021/11/07 04:26:11;;;;;;;11.27;5.90;;;;;;;10.15;100.00;101438.41;4994411;28;20116;-53
2021/11/07 04:28:38;;;;;;;11.43;6.65;;;;;;;10.15;100.00;101443.00;4984524;28;20401;-51
2021/11/07 04:31:06;;;;;;;9.75;6.38;;;;;;;10.14;100.00;101442.19;4991579;28;20039;-54
2021/11/07 04:33:34;;;;;;;11.88;6.65;;;;;;;10.14;100.00;101447.63;4994249;28;20042;-52
2021/11/07 04:36:03;;;;;;;11.00;6.03;;;;;;;10.12;100.00;101444.34;4994548;28;20046;-54
2021/11/07 04:38:31;;;;;;;9.77;6.20;;;;;;;10.12;100.00;101441.63;4994403;28;20060;-52
2021/11/07 04:40:58;;;;;;;10.32;6.10;;;;;;;10.14;100.00;101450.38;4992671;28;20042;-49
2021/11/07 04:43:26;;;;;;;10.60;6.10;;;;;;;10.12;100.00;101444.34;4994462;28;20485;-51
2021/11/07 04:45:53;;;;;;;7.38;5.55;;;;;;;10.14;100.00;101457.72;4994324;28;20412;-52
2021/11/07 04:48:21;;;;;;;11.70;6.70;;;;;;;10.15;100.00;101462.94;4993855;28;20470;-48
2021/11/07 04:50:50;;;;;;;10.27;6.32;;;;;;;10.14;100.00;101469.44;4992158;28;20428;-50
2021/11/07 04:53:21;;;;;;;10.35;5.68;;;;;;;10.16;100.00;101461.03;4994485;28;20129;-52
2021/11/07 04:55:49;;;;;;;9.85;6.57;;;;;;;10.17;100.00;101463.50;4994165;28;20052;-48
2021/11/07 04:58:17;;;;;;;11.60;7.00;;;;;;;10.16;100.00;101469.19;4997882;28;20050;-50
2021/11/07 05:00:45;;;;;;;8.57;5.75;;;;;;;10.17;100.00;101459.94;4993520;28;20102;-51
2021/11/07 05:03:13;;;;;;;10.57;6.80;;;;;;;10.16;100.00;101440.06;4993654;28;20043;-50
2021/11/07 05:05:41;;;;;;;11.00;6.80;;;;;;;10.15;100.00;101449.31;4993984;28;20086;-51
2021/11/07 05:08:09;;;;;;;11.00;6.65;;;;;;;10.17;100.00;101468.09;4993653;28;20126;-51
2021/11/07 05:10:37;;;;;;;14.10;6.88;;;;;;;10.18;100.00;101454.25;4993645;28;20038;-51
2021/11/07 05:13:05;;;;;;;11.18;6.35;;;;;;;10.18;100.00;101437.09;4993545;28;20045;-52
2021/11/07 05:15:33;;;;;;;10.55;6.40;;;;;;;10.18;100.00;101456.97;4993371;28;20117;-52
2021/11/07 05:18:02;;;;;;;13.65;6.15;;;;;;;10.20;100.00;101449.38;4993567;28;20054;-54
2021/11/07 05:20:29;;;;;;;13.20;7.40;;;;;;;10.19;100.00;101428.66;4993313;28;20046;-51
2021/11/07 05:22:57;;;;;;;13.35;6.45;;;;;;;10.19;100.00;101439.53;4988542;28;20477;-50
2021/11/07 05:25:24;;;;;;;12.48;7.07;;;;;;;10.21;100.00;101455.66;4993757;28;20049;-52
2021/11/07 05:27:52;;;;;;;13.75;6.80;;;;;;;10.21;100.00;101455.66;4992922;28;20049;-51
2021/11/07 05:30:20;;;;;;;12.63;7.35;;;;;;;10.22;100.00;101449.09;4993339;28;20046;-50
2021/11/07 05:32:48;;;;;;;12.50;6.78;;;;;;;10.21;100.00;101426.50;4992722;28;20035;-51
2021/11/07 05:35:20;;;;;;;11.68;7.00;;;;;;;10.22;100.00;101433.63;4992998;28;20046;-51
2021/11/07 05:37:49;;;;;;;13.45;7.40;;;;;;;10.20;100.00;101452.09;4993098;28;20042;-51
2021/11/07 05:40:18;;;;;;;15.05;7.93;;;;;;;10.20;100.00;101456.72;4993225;28;20049;-52
2021/11/07 05:42:49;;;;;;;12.75;7.20;;;;;;;10.18;100.00;101454.25;4992544;28;20046;-51
2021/11/07 05:45:17;;;;;;;11.95;6.50;;;;;;;10.19;100.00;101455.88;5007698;28;20050;-51
2021/11/07 05:47:45;;;;;;;14.48;7.65;;;;;;;10.21;100.00;101448.28;4993435;28;20133;-51
2021/11/07 05:50:14;;;;;;;13.10;7.70;;;;;;;10.20;100.00;101446.66;4992810;28;20061;-52
2021/11/07 05:52:43;;;;;;;15.43;7.93;;;;;;;10.19;100.00;101446.91;4992362;28;20057;-50
2021/11/07 05:55:11;;;;;;;13.98;7.53;;;;;;;10.20;100.00;101448.56;4993022;28;20401;-53
2021/11/07 05:57:40;;;;;;;14.50;8.15;;;;;;;10.19;100.00;101447.72;4992745;28;20088;-52
2021/11/07 06:00:09;;;;;;;13.77;8.13;;;;;;;10.19;100.00;101455.06;4992756;28;20049;-48
2021/11/07 06:02:40;;;;;;;16.20;7.72;;;;;;;10.20;100.00;101452.09;4992514;28;20092;-51
2021/11/07 06:05:15;;;;;;;12.68;7.50;;;;;;;10.22;100.00;101460.00;4992469;28;20511;-52
2021/11/07 06:07:43;;;;;;;19.42;9.32;;;;;;;10.23;100.00;101456.22;4992794;28;20493;-52
2021/11/07 06:10:11;;;;;;;12.75;7.47;;;;;;;10.21;100.00;101461.91;4992477;28;20054;-51
2021/11/07 06:12:39;;;;;;;14.02;8.02;;;;;;;10.21;100.00;101456.47;4991925;28;20046;-52
2021/11/07 06:15:08;;;;;;;16.10;7.68;;;;;;;10.22;100.00;101463.56;4992375;28;20046;-52
2021/11/07 06:17:35;;;;;;;15.68;8.00;;;;;;;10.22;100.00;101465.44;4992651;28;20054;-52
2021/11/07 06:20:05;;;;;;;15.73;7.60;;;;;;;10.22;100.00;101465.44;4992895;28;20047;-49
2021/11/07 06:22:32;;;;;;;15.43;8.68;;;;;;;10.23;100.00;101478.81;4992035;28;20065;-52
2021/11/07 06:25:00;;;;;;;12.98;7.20;;;;;;;10.23;100.00;101478.00;4992118;28;20045;-51
2021/11/07 06:27:30;;;;;;;13.75;7.75;;;;;;;10.22;100.00;101471.75;4994723;28;20093;-49
2021/11/07 06:29:59;;;;;;;15.60;7.05;;;;;;;10.24;100.00;101471.47;4993655;28;20038;-51
2021/11/07 06:32:26;;;;;;;14.60;7.32;;;;;;;10.24;100.00;101480.47;4992421;28;20069;-51
2021/11/07 06:34:54;;;;;;;15.20;7.47;;;;;;;10.24;100.00;101485.09;4992329;28;20038;-51
2021/11/07 06:37:22;;;;;;;13.40;7.15;;;;;;;10.24;100.00;101491.34;4992572;28;20046;-52
2021/11/07 06:39:50;;;;;;;17.63;6.90;;;;;;;10.25;100.00;101486.75;4992177;28;20042;-51
2021/11/07 06:42:18;;;;;;;18.52;6.22;;;;;;;10.24;100.00;101490.53;4992119;28;20375;-52
2021/11/07 06:44:46;;;;;;;16.20;6.03;;;;;;;10.27;100.00;101472.88;4992445;28;20050;-48
2021/11/07 06:47:13;;;;;;;16.73;5.93;;;;;;;10.29;100.00;101485.19;4991644;28;20050;-53
2021/11/07 06:49:41;;;;;;;20.27;6.40;;;;;;;10.26;100.00;101491.13;4977523;28;20502;-51
2021/11/07 06:52:09;;;;;;;21.33;6.65;;;;;;;10.26;100.00;101498.47;4988753;28;20125;-52
2021/11/07 06:54:37;;;;;;;28.35;6.45;;;;;;;10.26;100.00;101493.03;4992017;28;20105;-51
2021/11/07 06:57:05;;;;;;;20.33;5.47;;;;;;;10.27;100.00;101486.50;4991160;28;20081;-52
2021/11/07 06:59:33;;;;;;;19.98;5.20;;;;;;;10.27;100.00;101491.94;4992018;28;20042;-50
2021/11/07 07:02:00;;;;;;;18.65;5.15;;;;;;;10.24;100.00;101476.94;4991125;28;20037;-49
2021/11/07 07:04:28;;;;;;;19.77;5.13;;;;;;;10.24;100.00;101488.63;4991223;28;20045;-49
2021/11/07 07:06:56;;;;;;;19.70;5.95;;;;;;;10.19;96.50;101502.19;4982556;28;20501;-49
2021/11/07 07:09:27;;;;;;;18.00;4.47;;;;;;;10.18;95.94;101497.81;4991708;28;20052;-49
2021/11/07 07:12:06;;;;;;;19.73;5.03;;;;;;;10.19;95.74;101502.19;4991289;28;20585;-51
2021/11/07 07:14:40;;;;;;;21.35;5.03;;;;;;;10.19;92.79;101514.97;4984957;28;20050;-49
2021/11/07 07:17:18;;;;;;;18.13;4.80;;;;;;;10.16;92.64;101510.84;4991851;28;20046;-51
2021/11/07 07:19:55;;;;;;;19.52;4.85;;;;;;;10.16;91.14;101516.31;4991255;28;20051;-47
2021/11/07 07:25:52;;;;;;;16.77;4.78;;;;;;;10.13;89.40;101527.69;4992505;28;20041;-51
2021/11/07 07:30:35;;;;;;;19.20;5.03;;;;;;;10.14;89.16;101512.19;4995254;28;20101;-50
2021/11/07 07:33:28;;;;;;;22.35;4.95;;;;;;;10.14;90.12;101528.50;4995110;28;20050;-50
2021/11/07 07:35:56;;;;;;;21.42;4.72;;;;;;;10.12;88.46;101530.66;4994307;28;20054;-49
2021/11/07 07:38:25;;;;;;;17.40;4.65;;;;;;;10.09;88.08;101531.16;4989099;28;20034;-51
2021/11/07 07:40:53;;;;;;;17.90;4.78;;;;;;;10.06;88.35;101527.03;4994758;28;20049;-50
2021/11/07 07:43:21;;;;;;;16.20;4.60;;;;;;;10.06;88.27;101540.66;4994980;28;20511;-51
2021/11/07 07:45:48;;;;;;;18.63;5.05;;;;;;;10.06;88.51;101532.47;4994861;28;20035;-52
2021/11/07 07:48:17;;;;;;;19.13;5.70;;;;;;;10.08;89.06;101524.03;4994491;28;20043;-52
2021/11/07 07:50:44;;;;;;;19.23;4.95;;;;;;;10.10;88.61;101524.63;4995036;28;20066;-51
2021/11/07 07:53:13;;;;;;;18.70;4.97;;;;;;;10.07;88.01;101533.28;4994357;28;20507;-48
2021/11/07 07:55:41;;;;;;;17.65;4.57;;;;;;;10.06;88.01;101537.09;4993450;28;20129;-48
2021/11/07 07:58:09;;;;;;;20.00;5.43;;;;;;;10.03;87.44;101535.72;4995078;28;20135;-50
2021/11/07 08:00:39;;;;;;;24.15;5.65;;;;;;;10.01;86.80;101540.56;4995123;28;20042;-51
2021/11/07 08:03:07;;;;;;;24.92;5.25;;;;;;;10.01;87.00;101529.69;4994806;28;20053;-51
2021/11/07 08:05:34;;;;;;;26.30;5.20;;;;;;;10.00;86.69;101537.00;4994394;28;20050;-50
2021/11/07 08:08:02;;;;;;;17.92;4.97;;;;;;;10.01;86.99;101540.56;4994820;28;20046;-51
2021/11/07 08:10:30;;;;;;;21.98;5.45;;;;;;;10.01;87.31;101537.84;4994185;28;20054;-49
2021/11/07 08:12:58;;;;;;;21.75;5.45;;;;;;;10.01;86.70;101540.56;4994987;28;20042;-50
2021/11/07 08:15:25;;;;;;;23.83;4.93;;;;;;;10.02;86.58;101534.84;4994181;28;20046;-50
2021/11/07 08:17:53;;;;;;;20.55;5.18;;;;;;;10.04;86.19;101545.50;4994130;28;20026;-50
2021/11/07 08:20:21;;;;;;;22.58;5.20;;;;;;;10.05;86.29;101535.44;4994368;28;20038;-48
2021/11/07 08:22:49;;;;;;;19.75;4.75;;;;;;;10.04;85.26;101548.22;4994107;28;20056;-51
2021/11/07 08:25:21;;;;;;;20.85;5.65;;;;;;;10.02;85.91;101545.75;4993292;28;20053;-52
2021/11/07 08:27:51;;;;;;;17.88;4.70;;;;;;;10.01;86.21;101544.09;4988650;28;20299;-51
2021/11/07 08:30:23;;;;;;;20.92;4.85;;;;;;;10.03;86.07;101550.13;4993759;28;20046;-49
2021/11/07 08:32:51;;;;;;;23.67;5.22;;;;;;;10.03;86.65;101547.41;4994614;28;20112;-51
2021/11/07 08:35:19;;;;;;;21.20;5.68;;;;;;;10.04;86.24;101553.69;4994360;28;20046;-51
2021/11/07 08:37:59;;;;;;;17.48;4.93;;;;;;;10.05;86.58;101555.31;4993897;28;20129;-48
2021/11/07 08:40:31;;;;;;;19.90;4.63;;;;;;;10.14;85.92;101551.13;4993809;28;20558;-51
2021/11/07 09:10:10;;;;;;;24.17;4.93;;;;;;;10.22;83.91;101553.44;4993255;28;20100;-50
2021/11/07 09:12:38;;;;;;;14.70;4.23;;;;;;;10.22;83.68;101555.31;4993634;28;20046;-50
2021/11/07 09:15:07;;;;;;;20.83;4.57;;;;;;;10.22;83.34;101552.59;4993553;28;20038;-50
2021/11/07 09:17:35;;;;;;;20.48;4.85;;;;;;;10.21;83.48;101557.22;4993259;28;20118;-50
2021/11/07 09:20:06;;;;;;;27.77;4.93;;;;;;;10.26;83.44;101553.75;4993369;28;20046;-51
2021/11/07 09:22:41;;;;;;;22.92;5.38;;;;;;;10.29;82.92;101552.47;4991813;28;20042;-49
2021/11/07 09:25:16;;;;;;;18.02;5.00;;;;;;;10.28;82.66;101554.38;4993768;28;20465;-49
2021/11/07 09:27:48;;;;;;;23.80;5.00;;;;;;;10.29;83.60;101547.03;4993463;28;20050;-49
2021/11/07 09:35:40;;;;;;;23.80;5.65;;;;;;;10.36;82.94;101547.69;4993277;28;20053;-48
2021/11/07 09:38:16;;;;;;;21.98;5.15;;;;;;;10.36;82.42;101553.13;4992462;28;20070;-51
2021/11/07 09:40:48;;;;;;;14.52;4.57;;;;;;;10.40;82.59;101554.28;4993329;28;20054;-51
2021/11/07 09:43:41;;;;;;;18.05;4.63;;;;;;;10.38;81.39;101556.44;4993098;28;20465;-50
2021/11/07 09:46:14;;;;;;;17.65;4.82;;;;;;;10.38;82.53;101562.69;4993386;28;20050;-51
2021/11/07 09:48:45;;;;;;;20.40;4.80;;;;;;;10.39;81.53;101553.47;4990719;28;20042;-52
2021/11/07 09:51:19;;;;;;;21.30;4.93;;;;;;;10.41;82.16;101558.66;4992910;28;20058;-51
2021/11/07 09:53:51;;;;;;;19.30;4.85;;;;;;;10.39;82.35;101563.53;4992755;28;20050;-51
2021/11/07 09:56:20;;;;;;;28.38;5.20;;;;;;;10.43;82.06;101565.50;4993120;28;20053;-47
2021/11/07 09:58:51;;;;;;;17.40;4.97;;;;;;;10.48;82.37;101551.13;4992755;28;20397;-50
2021/11/07 10:01:19;;;;;;;20.08;5.38;;;;;;;10.51;82.64;101560.72;4992958;28;20038;-52
2021/11/07 10:03:47;;;;;;;20.13;4.80;;;;;;;10.53;82.50;101556.66;4992508;28;20039;-47
2021/11/07 10:06:36;;;;;;;20.23;4.93;;;;;;;10.57;82.74;101555.09;4992757;28;20560;-50
2021/11/07 10:09:06;;;;;;;18.20;4.75;;;;;;;10.58;81.69;101554.03;4992605;28;20038;-50
2021/11/07 10:11:40;;;;;;;24.48;5.35;;;;;;;10.55;81.46;101557.25;4992874;28;20049;-50
2021/11/07 10:14:21;;;;;;;19.15;4.80;;;;;;;10.53;81.04;101564.84;4992698;28;20052;-46
2021/11/07 10:16:52;;;;;;;20.95;5.25;;;;;;;10.51;80.99;101566.16;4993154;28;20462;-52
2021/11/07 10:19:38;;;;;;;16.70;4.18;;;;;;;10.50;81.06;101565.34;4992110;28;20054;-52
2021/11/07 10:22:20;;;;;;;17.67;4.80;;;;;;;10.50;80.69;101557.16;4992446;28;20065;-50
2021/11/07 10:24:56;;;;;;;18.88;4.88;;;;;;;10.51;81.26;101561.56;4992760;28;20489;-52
2021/11/07 10:27:23;;;;;;;26.13;5.55;;;;;;;10.48;79.56;101563.94;4992936;28;20046;-46
2021/11/07 10:29:53;;;;;;;21.75;5.07;;;;;;;10.46;80.18;101572.34;4992256;28;20130;-51
2021/11/07 10:32:29;;;;;;;18.60;4.57;;;;;;;10.48;80.75;101572.94;4991524;28;20061;-51
2021/11/07 10:35:37;;;;;;;20.10;4.85;;;;;;;10.49;80.32;101566.44;4992110;28;20038;-51
2021/11/07 10:41:26;;;;;;;18.00;5.13;;;;;;;10.50;79.21;101559.06;4992360;28;20411;-50
2021/11/07 10:52:47;;;;;;;20.02;4.78;;;;;;;10.55;79.15;101559.97;4970852;28;20098;-46
2021/11/07 10:55:21;;;;;;;24.08;5.38;;;;;;;10.56;79.05;101561.63;4970598;28;20510;-50
2021/11/07 10:57:55;;;;;;;21.90;4.93;;;;;;;10.57;78.10;101566.00;4970725;28;20058;-49
2021/11/07 11:00:34;;;;;;;23.70;4.90;;;;;;;10.56;79.11;101564.34;4975355;28;20047;-48
2021/11/07 11:03:08;;;;;;;18.15;4.75;;;;;;;10.57;77.86;101571.44;4974453;28;20130;-49
2021/11/07 11:05:42;;;;;;;20.98;4.90;;;;;;;10.54;76.70;101563.78;4973967;28;20059;-53
2021/11/07 11:08:21;;;;;;;19.02;4.57;;;;;;;10.55;76.18;101570.88;4974503;28;20506;-49
2021/11/07 11:11:03;;;;;;;22.35;4.90;;;;;;;10.55;76.76;101561.88;4973872;28;20074;-50
2021/11/07 11:13:39;;;;;;;17.95;4.82;;;;;;;10.53;76.83;101548.47;4974334;28;20053;-50
2021/11/07 11:16:42;;;;;;;25.20;5.90;;;;;;;10.53;76.46;101543.03;4974165;28;20050;-50
2021/11/07 11:19:52;;;;;;;18.60;4.32;;;;;;;10.53;76.72;101553.94;4973691;28;20051;-52
2021/11/07 11:33:04;;;;;;;16.92;4.22;;;;;;;10.65;76.78;101549.22;4994343;28;20417;-52
2021/11/07 11:35:37;;;;;;;18.50;4.65;;;;;;;10.73;76.33;101547.16;4995615;28;20468;-47
2021/11/07 11:38:15;;;;;;;20.38;5.15;;;;;;;10.76;76.59;101539.28;4994219;28;20425;-49
2021/11/07 11:41:08;;;;;;;21.17;5.15;;;;;;;10.85;76.71;101534.25;4995452;28;20508;-50
2021/11/07 11:43:42;;;;;;;20.25;5.00;;;;;;;10.82;75.49;101537.44;4995041;28;20042;-50
2021/11/07 11:46:36;;;;;;;21.70;5.00;;;;;;;10.83;75.91;101531.75;4995161;28;20050;-50
2021/11/07 11:54:43;;;;;;;23.80;5.18;;;;;;;10.91;74.41;101533.22;4993387;28;20378;-49
2021/11/07 11:57:43;;;;;;;23.08;5.10;;;;;;;10.93;74.37;101525.59;4994902;28;20046;-49
2021/11/07 12:03:10;;;;;;;;;;;;;;;10.95;74.60;101526.19;4994944;28;20042;-49
2021/11/07 12:10:45;;;;;;;17.98;4.55;;;;;;;10.93;73.42;101528.34;4994065;28;20581;-49
2021/11/07 12:13:41;;;;;;;18.98;4.63;;;;;;;10.89;72.36;101516.28;4993436;28;20409;-47
2021/11/07 12:16:21;;;;;;;15.10;4.45;;;;;;;10.88;72.88;101518.19;4994562;28;20485;-51
2021/11/07 12:19:11;;;;;;;14.60;4.75;;;;;;;11.01;73.92;101527.88;4994430;28;20049;-50
2021/11/07 12:21:50;;;;;;;12.80;3.78;;;;;;;11.03;74.17;101520.28;4994407;28;20057;-49
2021/11/07 12:24:19;;;;;;;18.77;5.32;;;;;;;10.96;73.18;101525.09;4994272;28;20049;-51
2021/11/07 12:26:47;;;;;;;15.75;4.10;;;;;;;10.96;73.27;101519.63;4994849;28;20046;-50
2021/11/07 12:29:36;;;;;;;21.70;5.03;;;;;;;11.09;73.45;101515.72;4995439;28;20045;-44
2021/11/07 12:32:06;;;;;;;15.32;4.60;;;;;;;11.09;73.19;101502.91;4990194;28;20314;-45
2021/11/07 12:40:46;;;;;;;17.15;4.60;;;;;;;11.09;72.54;101524.72;4993918;28;20053;-51
2021/11/07 12:43:22;;;;;;;15.63;4.88;;;;;;;10.99;72.16;101521.88;4988899;28;20128;-49
2021/11/07 12:45:54;;;;;;;22.58;4.90;;;;;;;11.00;73.88;101525.44;4981630;28;20520;-49
2021/11/07 12:48:57;;;;;;;20.73;5.25;;;;;;;11.05;74.25;101520.03;4992822;28;20531;-46
2021/11/07 12:51:32;;;;;;;16.77;4.55;;;;;;;11.05;73.57;101523.56;4898115;29;20063;-48
2021/11/07 12:54:06;;;;;;;21.10;4.82;;;;;;;11.07;72.73;101515.97;4914497;29;20060;-49
2021/11/07 12:56:36;;;;;;;16.52;4.53;;;;;;;11.13;73.26;101513.31;4915008;29;20428;-47
2021/11/07 12:59:07;;;;;;;20.35;5.38;;;;;;;11.09;72.20;101515.72;4914299;29;20097;-49
2021/11/07 13:02:11;;;;;;;21.40;5.72;;;;;;;11.08;73.17;101520.34;4913325;29;20055;-47
2021/11/07 13:05:03;;;;;;;17.85;4.32;;;;;;;11.09;72.98;101519.28;4802836;29;20047;-51
2021/11/07 13:07:40;;;;;;;19.88;5.20;;;;;;;11.13;72.53;101526.94;4806597;29;20077;-50
2021/11/07 13:10:12;;;;;;;18.67;4.35;;;;;;;11.12;71.13;101528.03;4802398;29;20055;-49
2021/11/07 13:12:44;;;;;;;25.08;6.43;;;;;;;11.09;70.76;101524.72;4802181;29;20525;-50
2021/11/07 13:25:57;;;;;;;22.10;5.35;;;;;;;11.20;71.05;101522.13;4802399;29;20491;-50
2021/11/07 13:28:36;;;;;;;19.23;5.22;;;;;;;11.21;70.44;101540.16;4865942;29;20078;-50
2021/11/07 13:31:22;;;;;;;26.40;5.35;;;;;;;11.19;70.63;101534.13;4888519;29;20052;-52
2021/11/07 13:33:50;;;;;;;22.73;5.90;;;;;;;11.18;70.11;101538.72;4896333;29;20061;-46
2021/11/07 13:36:19;;;;;;;18.77;4.47;;;;;;;11.17;69.83;101537.09;4886390;29;20049;-50